sensor_id;sensor_type;location;lat;lon;timestamp;pressure;altitude;pressure_sealevel;temperature;humidity
70323;BME280;57735;56.264;43.898;2023-04-07T00:01:28;101793.66;;;2.44;46.95
70323;BME280;57735;56.264;43.898;2023-04-07T00:03:59;101787.53;;;2.44;46.95
70323;BME280;57735;56.264;43.898;2023-04-07T00:06:31;101786.59;;;2.45;47.03
70323;BME280;57735;56.264;43.898;2023-04-07T00:09:02;101792.84;;;2.42;47.62
70323;BME280;57735;56.264;43.898;2023-04-07T00:11:32;101792.06;;;2.40;47.41
70323;BME280;57735;56.264;43.898;2023-04-07T00:14:03;101789.44;;;2.40;47.22
70323;BME280;57735;56.264;43.898;2023-04-07T00:16:34;101793.72;;;2.43;47.19
70323;BME280;57735;56.264;43.898;2023-04-07T00:19:04;101793.78;;;2.41;47.41
70323;BME280;57735;56.264;43.898;2023-04-07T00:21:35;101786.78;;;2.40;47.27
70323;BME280;57735;56.264;43.898;2023-04-07T00:24:05;101794.56;;;2.43;47.06
70323;BME280;57735;56.264;43.898;2023-04-07T00:26:36;101791.94;;;2.43;47.19
70323;BME280;57735;56.264;43.898;2023-04-07T00:29:07;101800.75;;;2.42;47.12
70323;BME280;57735;56.264;43.898;2023-04-07T00:31:37;101802.66;;;2.39;47.73
70323;BME280;57735;56.264;43.898;2023-04-07T00:34:08;101796.59;;;2.37;47.46
70323;BME280;57735;56.264;43.898;2023-04-07T00:36:38;101799.28;;;2.35;47.64
70323;BME280;57735;56.264;43.898;2023-04-07T00:39:09;101805.63;;;2.31;47.58
70323;BME280;57735;56.264;43.898;2023-04-07T00:41:39;101814.44;;;2.30;47.47
70323;BME280;57735;56.264;43.898;2023-04-07T00:44:12;101807.47;;;2.29;47.31
70323;BME280;57735;56.264;43.898;2023-04-07T00:46:43;101819.94;;;2.24;47.58
70323;BME280;57735;56.264;43.898;2023-04-07T00:49:14;101813.84;;;2.24;47.68
70323;BME280;57735;56.264;43.898;2023-04-07T00:51:47;101818.31;;;2.22;47.57
70323;BME280;57735;56.264;43.898;2023-04-07T00:54:17;101821.00;;;2.20;47.70
70323;BME280;57735;56.264;43.898;2023-04-07T00:56:48;101821.16;;;2.17;47.68
70323;BME280;57735;56.264;43.898;2023-04-07T00:59:18;101815.09;;;2.15;47.92
70323;BME280;57735;56.264;43.898;2023-04-07T01:04:55;101829.41;;;2.08;47.75
70323;BME280;57735;56.264;43.898;2023-04-07T01:07:39;101830.31;;;2.07;48.02
70323;BME280;57735;56.264;43.898;2023-04-07T01:10:15;101827.81;;;2.04;48.12
70323;BME280;57735;56.264;43.898;2023-04-07T01:15:28;101827.28;;;1.96;48.59
70323;BME280;57735;56.264;43.898;2023-04-07T01:18:01;101830.16;;;1.90;48.45
70323;BME280;57735;56.264;43.898;2023-04-07T01:20:37;101832.91;;;1.87;48.59
70323;BME280;57735;56.264;43.898;2023-04-07T01:23:09;101840.81;;;1.87;48.58
70323;BME280;57735;56.264;43.898;2023-04-07T01:25:58;101831.34;;;1.83;49.02
70323;BME280;57735;56.264;43.898;2023-04-07T01:31:04;101838.50;;;1.79;48.59
70323;BME280;57735;56.264;43.898;2023-04-07T01:33:34;101840.38;;;1.75;48.52
70323;BME280;57735;56.264;43.898;2023-04-07T01:36:06;101837.88;;;1.72;48.70
70323;BME280;57735;56.264;43.898;2023-04-07T01:38:37;101835.38;;;1.69;48.86
70323;BME280;57735;56.264;43.898;2023-04-07T01:41:08;101837.22;;;1.67;48.40
70323;BME280;57735;56.264;43.898;2023-04-07T01:43:39;101845.22;;;1.64;49.00
70323;BME280;57735;56.264;43.898;2023-04-07T01:46:10;101846.94;;;1.65;48.67
70323;BME280;57735;56.264;43.898;2023-04-07T01:48:40;101842.72;;;1.61;48.70
70323;BME280;57735;56.264;43.898;2023-04-07T01:51:11;101853.28;;;1.60;48.81
70323;BME280;57735;56.264;43.898;2023-04-07T01:53:46;101850.78;;;1.57;48.85
70323;BME280;57735;56.264;43.898;2023-04-07T01:56:17;101852.66;;;1.53;48.93
70323;BME280;57735;56.264;43.898;2023-04-07T01:58:48;101844.81;;;1.52;48.96
70323;BME280;57735;56.264;43.898;2023-04-07T02:01:18;101851.75;;;1.54;48.50
70323;BME280;57735;56.264;43.898;2023-04-07T02:04:00;101857.97;;;1.52;48.83
70323;BME280;57735;56.264;43.898;2023-04-07T02:06:36;101859.88;;;1.48;48.58
70323;BME280;57735;56.264;43.898;2023-04-07T02:09:09;101857.44;;;1.44;48.82
70323;BME280;57735;56.264;43.898;2023-04-07T02:11:40;101855.75;;;1.41;48.90
70323;BME280;57735;56.264;43.898;2023-04-07T02:14:13;101856.69;;;1.40;48.78
70323;BME280;57735;56.264;43.898;2023-04-07T02:16:44;101861.81;;;1.43;48.44
70323;BME280;57735;56.264;43.898;2023-04-07T02:19:16;101867.88;;;1.45;48.45
70323;BME280;57735;56.264;43.898;2023-04-07T02:21:46;101867.03;;;1.45;48.85
70323;BME280;57735;56.264;43.898;2023-04-07T02:24:18;101872.44;;;1.40;48.83
70323;BME280;57735;56.264;43.898;2023-04-07T02:26:50;101869.06;;;1.36;49.05
70323;BME280;57735;56.264;43.898;2023-04-07T02:29:20;101876.09;;;1.36;49.03
70323;BME280;57735;56.264;43.898;2023-04-07T02:31:53;101882.34;;;1.33;48.96
70323;BME280;57735;56.264;43.898;2023-04-07T02:34:25;101873.47;;;1.36;48.85
70323;BME280;57735;56.264;43.898;2023-04-07T02:36:58;101885.84;;;1.34;48.74
70323;BME280;57735;56.264;43.898;2023-04-07T02:39:28;101891.25;;;1.29;49.35
70323;BME280;57735;56.264;43.898;2023-04-07T02:41:59;101887.66;;;1.32;48.98
70323;BME280;57735;56.264;43.898;2023-04-07T02:44:29;101893.72;;;1.34;48.72
70323;BME280;57735;56.264;43.898;2023-04-07T02:47:00;101895.53;;;1.32;48.97
70323;BME280;57735;56.264;43.898;2023-04-07T02:49:30;101892.00;;;1.33;49.05
70323;BME280;57735;56.264;43.898;2023-04-07T02:52:01;101895.59;;;1.30;49.29
70323;BME280;57735;56.264;43.898;2023-04-07T02:54:31;101894.72;;;1.30;49.71
70323;BME280;57735;56.264;43.898;2023-04-07T02:57:04;101899.19;;;1.28;49.49
70323;BME280;57735;56.264;43.898;2023-04-07T02:59:35;101896.63;;;1.26;49.93
70323;BME280;57735;56.264;43.898;2023-04-07T03:02:06;101899.19;;;1.28;49.31
70323;BME280;57735;56.264;43.898;2023-04-07T03:04:36;101908.78;;;1.29;49.00
70323;BME280;57735;56.264;43.898;2023-04-07T03:07:07;101907.81;;;1.31;49.38
70323;BME280;57735;56.264;43.898;2023-04-07T03:09:37;101900.84;;;1.30;49.94
70323;BME280;57735;56.264;43.898;2023-04-07T03:12:10;101906.16;;;1.29;49.34
70323;BME280;57735;56.264;43.898;2023-04-07T03:14:40;101906.97;;;1.31;49.11
70323;BME280;57735;56.264;43.898;2023-04-07T03:17:11;101907.88;;;1.30;49.28
70323;BME280;57735;56.264;43.898;2023-04-07T03:19:41;101910.38;;;1.33;49.03
70323;BME280;57735;56.264;43.898;2023-04-07T03:22:12;101910.38;;;1.33;48.79
70323;BME280;57735;56.264;43.898;2023-04-07T03:24:43;101907.63;;;1.36;48.50
70323;BME280;57735;56.264;43.898;2023-04-07T03:27:13;101924.25;;;1.36;48.58
70323;BME280;57735;56.264;43.898;2023-04-07T03:29:45;101920.66;;;1.39;48.54
70323;BME280;57735;56.264;43.898;2023-04-07T03:32:16;101918.81;;;1.41;48.11
70323;BME280;57735;56.264;43.898;2023-04-07T03:34:46;101931.91;;;1.43;47.82
70323;BME280;57735;56.264;43.898;2023-04-07T03:37:17;101923.97;;;1.44;47.94
70323;BME280;57735;56.264;43.898;2023-04-07T03:39:47;101929.16;;;1.46;48.04
70323;BME280;57735;56.264;43.898;2023-04-07T03:42:18;101935.16;;;1.49;47.78
70323;BME280;57735;56.264;43.898;2023-04-07T03:44:48;101935.03;;;1.52;47.61
70323;BME280;57735;56.264;43.898;2023-04-07T03:47:21;101917.44;;;1.54;47.47
70323;BME280;57735;56.264;43.898;2023-04-07T03:49:51;101936.63;;;1.56;47.70
70323;BME280;57735;56.264;43.898;2023-04-07T03:52:25;101926.97;;;1.57;47.45
70323;BME280;57735;56.264;43.898;2023-04-07T03:54:56;101929.59;;;1.57;47.31
70323;BME280;57735;56.264;43.898;2023-04-07T03:57:26;101938.28;;;1.59;47.54
70323;BME280;57735;56.264;43.898;2023-04-07T03:59:57;101940.81;;;1.62;47.35
70323;BME280;57735;56.264;43.898;2023-04-07T04:02:27;101935.56;;;1.62;47.35
70323;BME280;57735;56.264;43.898;2023-04-07T04:04:58;101938.88;;;1.67;46.95
70323;BME280;57735;56.264;43.898;2023-04-07T04:07:28;101942.28;;;1.69;46.80
70323;BME280;57735;56.264;43.898;2023-04-07T04:09:59;101951.94;;;1.68;46.52
70323;BME280;57735;56.264;43.898;2023-04-07T04:12:29;101948.34;;;1.71;46.63
70323;BME280;57735;56.264;43.898;2023-04-07T04:15:00;101945.75;;;1.69;47.14
70323;BME280;57735;56.264;43.898;2023-04-07T04:17:34;101953.41;;;1.75;46.78
70323;BME280;57735;56.264;43.898;2023-04-07T04:20:04;101960.16;;;1.83;46.62
70323;BME280;57735;56.264;43.898;2023-04-07T04:22:35;101957.28;;;1.89;46.44
70323;BME280;57735;56.264;43.898;2023-04-07T04:25:06;101968.50;;;1.94;46.20
70323;BME280;57735;56.264;43.898;2023-04-07T04:27:36;101975.41;;;1.96;45.93
70323;BME280;57735;56.264;43.898;2023-04-07T04:30:07;101972.59;;;2.01;45.54
70323;BME280;57735;56.264;43.898;2023-04-07T04:32:37;101976.75;;;2.06;45.96
70323;BME280;57735;56.264;43.898;2023-04-07T04:35:08;101980.97;;;2.10;45.43
70323;BME280;57735;56.264;43.898;2023-04-07T04:37:43;101972.91;;;2.15;45.60
70323;BME280;57735;56.264;43.898;2023-04-07T04:40:14;101977.91;;;2.21;45.18
70323;BME280;57735;56.264;43.898;2023-04-07T04:42:45;101987.47;;;2.24;45.29
70323;BME280;57735;56.264;43.898;2023-04-07T04:45:15;101987.47;;;2.24;45.05
70323;BME280;57735;56.264;43.898;2023-04-07T04:47:46;101986.31;;;2.31;45.05
70323;BME280;57735;56.264;43.898;2023-04-07T04:50:16;101979.06;;;2.36;44.98
70323;BME280;57735;56.264;43.898;2023-04-07T04:52:47;101983.34;;;2.38;44.67
70323;BME280;57735;56.264;43.898;2023-04-07T04:55:17;101992.97;;;2.39;44.41
70323;BME280;57735;56.264;43.898;2023-04-07T04:57:48;101990.34;;;2.39;44.84
70323;BME280;57735;56.264;43.898;2023-04-07T05:00:19;101991.03;;;2.44;44.75
70323;BME280;57735;56.264;43.898;2023-04-07T05:02:50;101982.66;;;2.55;44.78
70323;BME280;57735;56.264;43.898;2023-04-07T05:05:20;101994.69;;;2.62;44.09
70323;BME280;57735;56.264;43.898;2023-04-07T05:07:51;101998.84;;;2.68;44.12
70323;BME280;57735;56.264;43.898;2023-04-07T05:10:21;102001.25;;;2.72;43.71
70323;BME280;57735;56.264;43.898;2023-04-07T05:12:52;102000.22;;;2.76;43.55
70323;BME280;57735;56.264;43.898;2023-04-07T05:15:22;102001.75;;;2.82;43.54
70323;BME280;57735;56.264;43.898;2023-04-07T05:17:53;102003.31;;;2.86;43.49
70323;BME280;57735;56.264;43.898;2023-04-07T05:20:25;101996.88;;;2.93;43.13
70323;BME280;57735;56.264;43.898;2023-04-07T05:22:59;101989.38;;;3.04;43.21
70323;BME280;57735;56.264;43.898;2023-04-07T05:25:29;102001.31;;;3.13;42.62
70323;BME280;57735;56.264;43.898;2023-04-07T05:28:00;102002.78;;;3.19;42.75
70323;BME280;57735;56.264;43.898;2023-04-07T05:30:30;102004.31;;;3.24;42.49
70323;BME280;57735;56.264;43.898;2023-04-07T05:33:01;101998.97;;;3.26;41.95
70323;BME280;57735;56.264;43.898;2023-04-07T05:35:33;102010.25;;;3.29;42.14
70323;BME280;57735;56.264;43.898;2023-04-07T05:38:04;102004.63;;;3.37;42.16
70323;BME280;57735;56.264;43.898;2023-04-07T05:40:35;102003.50;;;3.42;41.62
70323;BME280;57735;56.264;43.898;2023-04-07T05:43:05;102005.94;;;3.47;41.41
70323;BME280;57735;56.264;43.898;2023-04-07T05:45:36;102010.94;;;3.53;41.36
70323;BME280;57735;56.264;43.898;2023-04-07T05:48:06;102007.16;;;3.59;41.10
70323;BME280;57735;56.264;43.898;2023-04-07T05:50:37;101999.84;;;3.65;41.58
70323;BME280;57735;56.264;43.898;2023-04-07T05:53:07;102016.22;;;3.72;41.52
70323;BME280;57735;56.264;43.898;2023-04-07T05:55:43;102012.28;;;3.82;41.25
70323;BME280;57735;56.264;43.898;2023-04-07T05:58:13;102007.41;;;3.92;40.96
70323;BME280;57735;56.264;43.898;2023-04-07T06:00:44;102012.19;;;4.02;40.99
70323;BME280;57735;56.264;43.898;2023-04-07T06:03:14;102012.56;;;4.13;40.20
70323;BME280;57735;56.264;43.898;2023-04-07T06:05:45;102014.75;;;4.22;40.27
70323;BME280;57735;56.264;43.898;2023-04-07T06:08:16;102010.03;;;4.29;39.72
70323;BME280;57735;56.264;43.898;2023-04-07T06:10:47;102001.84;;;4.35;39.49
70323;BME280;57735;56.264;43.898;2023-04-07T06:13:17;102009.38;;;4.43;39.15
70323;BME280;57735;56.264;43.898;2023-04-07T06:15:48;102009.00;;;4.50;39.14
70323;BME280;57735;56.264;43.898;2023-04-07T06:18:18;102016.31;;;4.63;38.58
70323;BME280;57735;56.264;43.898;2023-04-07T06:20:51;102016.56;;;4.75;38.74
70323;BME280;57735;56.264;43.898;2023-04-07T06:23:22;102015.94;;;4.87;38.63
70323;BME280;57735;56.264;43.898;2023-04-07T06:25:52;102013.78;;;4.96;37.85
70323;BME280;57735;56.264;43.898;2023-04-07T06:28:23;102021.41;;;5.02;37.97
70323;BME280;57735;56.264;43.898;2023-04-07T06:30:53;102016.66;;;5.08;38.10
70323;BME280;57735;56.264;43.898;2023-04-07T06:33:24;102019.84;;;5.15;37.68
70323;BME280;57735;56.264;43.898;2023-04-07T06:35:54;102018.34;;;5.26;37.76
70323;BME280;57735;56.264;43.898;2023-04-07T06:38:25;102024.72;;;5.40;37.50
70323;BME280;57735;56.264;43.898;2023-04-07T06:40:58;102014.84;;;5.43;36.86
70323;BME280;57735;56.264;43.898;2023-04-07T06:43:29;102018.34;;;5.44;37.08
70323;BME280;57735;56.264;43.898;2023-04-07T06:46:00;102017.25;;;5.48;36.60
70323;BME280;57735;56.264;43.898;2023-04-07T06:48:31;102008.81;;;5.57;36.19
70323;BME280;57735;56.264;43.898;2023-04-07T06:51:02;102016.78;;;5.73;36.42
70323;BME280;57735;56.264;43.898;2023-04-07T06:53:35;102022.53;;;5.81;35.63
70323;BME280;57735;56.264;43.898;2023-04-07T06:56:07;102026.72;;;5.85;34.08
70323;BME280;57735;56.264;43.898;2023-04-07T06:58:38;102027.41;;;5.88;34.27
70323;BME280;57735;56.264;43.898;2023-04-07T07:01:08;102018.47;;;5.91;34.29
70323;BME280;57735;56.264;43.898;2023-04-07T07:03:42;102029.41;;;6.01;34.09
70323;BME280;57735;56.264;43.898;2023-04-07T07:06:15;102032.72;;;6.04;33.04
70323;BME280;57735;56.264;43.898;2023-04-07T07:08:46;102017.63;;;6.06;32.78
70323;BME280;57735;56.264;43.898;2023-04-07T07:11:16;102029.84;;;6.09;32.26
70323;BME280;57735;56.264;43.898;2023-04-07T07:13:47;102023.59;;;6.10;32.70
70323;BME280;57735;56.264;43.898;2023-04-07T07:16:17;102031.56;;;6.10;32.56
70323;BME280;57735;56.264;43.898;2023-04-07T07:18:48;102027.03;;;6.12;31.95
70323;BME280;57735;56.264;43.898;2023-04-07T07:21:19;102030.38;;;6.15;32.20
70323;BME280;57735;56.264;43.898;2023-04-07T07:23:53;102029.44;;;6.16;32.42
70323;BME280;57735;56.264;43.898;2023-04-07T07:26:23;102020.72;;;6.14;31.65
70323;BME280;57735;56.264;43.898;2023-04-07T07:28:54;102025.00;;;6.17;31.59
70323;BME280;57735;56.264;43.898;2023-04-07T07:31:25;102025.50;;;6.23;31.82
70323;BME280;57735;56.264;43.898;2023-04-07T07:33:58;102021.03;;;6.40;31.28
70323;BME280;57735;56.264;43.898;2023-04-07T07:36:30;102021.97;;;6.54;30.58
70323;BME280;57735;56.264;43.898;2023-04-07T07:39:01;102028.81;;;6.58;30.60
70323;BME280;57735;56.264;43.898;2023-04-07T07:41:31;102020.13;;;6.71;30.65
70323;BME280;57735;56.264;43.898;2023-04-07T07:44:02;102027.16;;;6.72;30.26
70323;BME280;57735;56.264;43.898;2023-04-07T07:46:33;102020.91;;;6.73;29.75
70323;BME280;57735;56.264;43.898;2023-04-07T07:49:03;102022.28;;;6.80;30.02
70323;BME280;57735;56.264;43.898;2023-04-07T07:51:35;102026.69;;;6.95;29.52
70323;BME280;57735;56.264;43.898;2023-04-07T07:54:05;102022.75;;;7.02;29.56
70323;BME280;57735;56.264;43.898;2023-04-07T07:56:36;102024.25;;;7.06;29.00
70323;BME280;57735;56.264;43.898;2023-04-07T07:59:06;102032.28;;;7.05;29.09
70323;BME280;57735;56.264;43.898;2023-04-07T08:01:37;102020.47;;;7.10;29.29
70323;BME280;57735;56.264;43.898;2023-04-07T08:04:07;102022.59;;;7.19;29.88
70323;BME280;57735;56.264;43.898;2023-04-07T08:06:38;102011.03;;;7.20;29.68
70323;BME280;57735;56.264;43.898;2023-04-07T08:09:09;102020.13;;;7.30;29.71
70323;BME280;57735;56.264;43.898;2023-04-07T08:11:39;102031.63;;;7.45;30.54
70323;BME280;57735;56.264;43.898;2023-04-07T08:14:10;102021.94;;;7.44;28.69
70323;BME280;57735;56.264;43.898;2023-04-07T08:16:41;102024.69;;;7.43;29.02
70323;BME280;57735;56.264;43.898;2023-04-07T08:19:17;102029.22;;;7.41;29.03
70323;BME280;57735;56.264;43.898;2023-04-07T08:21:48;102026.59;;;7.41;28.81
70323;BME280;57735;56.264;43.898;2023-04-07T08:24:18;102028.03;;;7.46;29.07
70323;BME280;57735;56.264;43.898;2023-04-07T08:26:49;102026.03;;;7.50;28.15
70323;BME280;57735;56.264;43.898;2023-04-07T08:29:20;102023.56;;;7.47;28.24
70323;BME280;57735;56.264;43.898;2023-04-07T08:31:50;102028.50;;;7.53;28.24
70323;BME280;57735;56.264;43.898;2023-04-07T08:34:21;102019.69;;;7.52;28.33
70323;BME280;57735;56.264;43.898;2023-04-07T08:36:51;102023.84;;;7.56;27.33
70323;BME280;57735;56.264;43.898;2023-04-07T08:39:22;102026.03;;;7.50;26.74
70323;BME280;57735;56.264;43.898;2023-04-07T08:41:54;102015.13;;;7.54;27.73
70323;BME280;57735;56.264;43.898;2023-04-07T08:44:27;102020.47;;;7.68;28.01
70323;BME280;57735;56.264;43.898;2023-04-07T08:46:59;102010.28;;;7.75;27.18
70323;BME280;57735;56.264;43.898;2023-04-07T08:49:30;102018.06;;;7.78;26.47
70323;BME280;57735;56.264;43.898;2023-04-07T08:52:02;102027.28;;;7.87;26.43
70323;BME280;57735;56.264;43.898;2023-04-07T08:54:34;102019.50;;;7.84;26.41
70323;BME280;57735;56.264;43.898;2023-04-07T08:57:06;102020.91;;;7.89;26.78
70323;BME280;57735;56.264;43.898;2023-04-07T08:59:37;102012.22;;;7.87;26.59
70323;BME280;57735;56.264;43.898;2023-04-07T09:02:12;102021.00;;;7.88;25.72
70323;BME280;57735;56.264;43.898;2023-04-07T09:04:43;102018.47;;;7.86;25.28
70323;BME280;57735;56.264;43.898;2023-04-07T09:07:14;102016.09;;;7.82;25.29
70323;BME280;57735;56.264;43.898;2023-04-07T09:09:45;102020.91;;;7.89;26.14
70323;BME280;57735;56.264;43.898;2023-04-07T09:12:17;102022.81;;;8.01;25.63
70323;BME280;57735;56.264;43.898;2023-04-07T09:14:47;102006.66;;;8.04;26.00
70323;BME280;57735;56.264;43.898;2023-04-07T09:17:18;102007.59;;;8.18;25.97
70323;BME280;57735;56.264;43.898;2023-04-07T09:19:48;102014.03;;;8.28;25.56
70323;BME280;57735;56.264;43.898;2023-04-07T09:22:39;102021.91;;;8.29;24.08
70323;BME280;57735;56.264;43.898;2023-04-07T09:25:21;102017.91;;;8.22;23.32
70323;BME280;57735;56.264;43.898;2023-04-07T09:27:53;102012.91;;;8.18;24.10
70323;BME280;57735;56.264;43.898;2023-04-07T09:30:25;102001.97;;;8.22;23.60
70323;BME280;57735;56.264;43.898;2023-04-07T09:32:56;102004.34;;;8.27;22.86
70323;BME280;57735;56.264;43.898;2023-04-07T09:35:27;102002.00;;;8.36;23.27
70323;BME280;57735;56.264;43.898;2023-04-07T09:38:05;101992.41;;;8.34;23.05
70323;BME280;57735;56.264;43.898;2023-04-07T09:40:36;102010.22;;;8.46;24.24
70323;BME280;57735;56.264;43.898;2023-04-07T09:43:13;101994.31;;;8.59;23.82
70323;BME280;57735;56.264;43.898;2023-04-07T09:45:45;101998.28;;;8.66;23.93
70323;BME280;57735;56.264;43.898;2023-04-07T09:48:18;102003.50;;;8.67;23.81
70323;BME280;57735;56.264;43.898;2023-04-07T09:50:52;101998.19;;;8.67;23.00
70323;BME280;57735;56.264;43.898;2023-04-07T09:53:42;102010.50;;;8.68;22.87
70323;BME280;57735;56.264;43.898;2023-04-07T09:56:13;102007.84;;;8.68;22.79
70323;BME280;57735;56.264;43.898;2023-04-07T09:58:45;102001.34;;;8.72;23.13
70323;BME280;57735;56.264;43.898;2023-04-07T10:01:19;101996.59;;;8.78;22.80
70323;BME280;57735;56.264;43.898;2023-04-07T10:03:53;101997.44;;;8.78;23.06
70323;BME280;57735;56.264;43.898;2023-04-07T10:06:27;102001.50;;;8.84;22.77
70323;BME280;57735;56.264;43.898;2023-04-07T10:09:00;101998.19;;;8.80;22.20
70323;BME280;57735;56.264;43.898;2023-04-07T10:11:31;101997.25;;;8.81;22.41
70323;BME280;57735;56.264;43.898;2023-04-07T10:14:03;101987.78;;;8.90;22.53
70323;BME280;57735;56.264;43.898;2023-04-07T10:16:39;101998.38;;;9.04;22.38
70323;BME280;57735;56.264;43.898;2023-04-07T10:19:11;101991.84;;;9.08;22.28
70323;BME280;57735;56.264;43.898;2023-04-07T10:21:45;101992.63;;;9.10;22.70
70323;BME280;57735;56.264;43.898;2023-04-07T10:27:02;101993.25;;;9.01;21.47
70323;BME280;57735;56.264;43.898;2023-04-07T10:29:34;101987.38;;;8.96;21.84
70323;BME280;57735;56.264;43.898;2023-04-07T10:32:06;101994.09;;;9.01;22.13
70323;BME280;57735;56.264;43.898;2023-04-07T10:37:20;101993.91;;;9.17;22.44
70323;BME280;57735;56.264;43.898;2023-04-07T10:40:26;102006.25;;;9.18;23.02
70323;BME280;57735;56.264;43.898;2023-04-07T10:42:43;101987.00;;;9.15;22.94
70323;BME280;57735;56.264;43.898;2023-04-07T10:45:15;101995.47;;;9.07;23.87
70323;BME280;57735;56.264;43.898;2023-04-07T10:50:31;101998.13;;;9.07;23.37
70323;BME280;57735;56.264;43.898;2023-04-07T10:53:08;101988.34;;;9.07;23.95
70323;BME280;57735;56.264;43.898;2023-04-07T10:58:18;101996.31;;;9.07;23.92
70323;BME280;57735;56.264;43.898;2023-04-07T11:01:35;101995.63;;;9.18;24.57
70323;BME280;57735;56.264;43.898;2023-04-07T11:03:54;101999.53;;;9.25;24.82
70323;BME280;57735;56.264;43.898;2023-04-07T11:06:25;101989.53;;;9.29;24.98
70323;BME280;57735;56.264;43.898;2023-04-07T11:08:56;101986.97;;;9.40;25.88
70323;BME280;57735;56.264;43.898;2023-04-07T11:11:37;101988.28;;;9.47;25.90
70323;BME280;57735;56.264;43.898;2023-04-07T11:14:07;101989.88;;;9.50;26.35
70323;BME280;57735;56.264;43.898;2023-04-07T11:16:42;101984.66;;;9.48;26.47
70323;BME280;57735;56.264;43.898;2023-04-07T11:19:12;101995.81;;;9.40;26.69
70323;BME280;57735;56.264;43.898;2023-04-07T11:21:43;101987.94;;;9.39;27.16
70323;BME280;57735;56.264;43.898;2023-04-07T11:27:03;101979.44;;;9.34;27.31
70323;BME280;57735;56.264;43.898;2023-04-07T11:29:33;101979.97;;;9.39;27.33
70323;BME280;57735;56.264;43.898;2023-04-07T11:32:04;101980.38;;;9.45;27.96
70323;BME280;57735;56.264;43.898;2023-04-07T11:34:37;101978.16;;;9.52;27.57
70323;BME280;57735;56.264;43.898;2023-04-07T11:37:21;101978.78;;;9.56;27.39
70323;BME280;57735;56.264;43.898;2023-04-07T11:42:38;101973.78;;;9.64;29.02
70323;BME280;57735;56.264;43.898;2023-04-07T11:45:16;101970.78;;;9.68;28.31
70323;BME280;57735;56.264;43.898;2023-04-07T11:47:47;101971.53;;;9.70;28.56
70323;BME280;57735;56.264;43.898;2023-04-07T11:50:38;101970.34;;;9.74;28.78
70323;BME280;57735;56.264;43.898;2023-04-07T11:53:09;101968.09;;;9.81;28.55
70323;BME280;57735;56.264;43.898;2023-04-07T11:55:40;101975.25;;;9.80;28.87
70323;BME280;57735;56.264;43.898;2023-04-07T11:58:11;101965.00;;;9.87;28.65
70323;BME280;57735;56.264;43.898;2023-04-07T12:01:01;101980.75;;;9.90;28.91
70323;BME280;57735;56.264;43.898;2023-04-07T12:03:37;101968.00;;;9.83;28.40
70323;BME280;57735;56.264;43.898;2023-04-07T12:06:30;101970.56;;;9.84;28.89
70323;BME280;57735;56.264;43.898;2023-04-07T12:09:04;101967.78;;;9.86;28.41
70323;BME280;57735;56.264;43.898;2023-04-07T12:11:35;101968.63;;;9.86;29.05
70323;BME280;57735;56.264;43.898;2023-04-07T12:14:08;101965.72;;;9.89;29.31
70323;BME280;57735;56.264;43.898;2023-04-07T12:16:39;101970.63;;;9.95;29.38
70323;BME280;57735;56.264;43.898;2023-04-07T12:19:12;101964.56;;;9.93;29.68
70323;BME280;57735;56.264;43.898;2023-04-07T12:21:43;101957.56;;;9.79;29.54
70323;BME280;57735;56.264;43.898;2023-04-07T12:24:16;101965.22;;;9.84;29.88
70323;BME280;57735;56.264;43.898;2023-04-07T12:26:47;101954.63;;;9.95;29.65
70323;BME280;57735;56.264;43.898;2023-04-07T12:29:17;101955.44;;;10.08;29.93
70323;BME280;57735;56.264;43.898;2023-04-07T12:31:49;101959.06;;;10.07;28.86
70323;BME280;57735;56.264;43.898;2023-04-07T12:34:19;101961.84;;;10.19;29.27
70323;BME280;57735;56.264;43.898;2023-04-07T12:36:50;101957.03;;;10.47;28.61
70323;BME280;57735;56.264;43.898;2023-04-07T12:39:21;101944.47;;;10.61;28.38
70323;BME280;57735;56.264;43.898;2023-04-07T12:41:52;101958.47;;;10.75;28.50
70323;BME280;57735;56.264;43.898;2023-04-07T12:44:24;101955.88;;;10.98;28.43
70323;BME280;57735;56.264;43.898;2023-04-07T12:46:55;101953.41;;;11.52;27.47
70323;BME280;57735;56.264;43.898;2023-04-07T12:49:25;101956.03;;;12.19;26.17
70323;BME280;57735;56.264;43.898;2023-04-07T12:51:56;101953.09;;;12.86;25.43
70323;BME280;57735;56.264;43.898;2023-04-07T12:54:27;101957.94;;;13.34;24.76
70323;BME280;57735;56.264;43.898;2023-04-07T12:56:58;101946.38;;;13.63;24.64
70323;BME280;57735;56.264;43.898;2023-04-07T12:59:29;101947.78;;;13.68;24.17
70323;BME280;57735;56.264;43.898;2023-04-07T13:02:00;101955.91;;;13.87;24.50
70323;BME280;57735;56.264;43.898;2023-04-07T13:04:31;101954.53;;;14.12;24.15
70323;BME280;57735;56.264;43.898;2023-04-07T13:07:01;101954.66;;;14.41;24.10
70323;BME280;57735;56.264;43.898;2023-04-07T13:09:32;101950.69;;;14.54;23.51
70323;BME280;57735;56.264;43.898;2023-04-07T13:12:03;101956.06;;;14.54;23.00
70323;BME280;57735;56.264;43.898;2023-04-07T13:14:33;101955.72;;;13.79;24.01
70323;BME280;57735;56.264;43.898;2023-04-07T13:17:04;101958.78;;;12.61;25.47
70323;BME280;57735;56.264;43.898;2023-04-07T13:19:35;101953.03;;;11.90;25.69
70323;BME280;57735;56.264;43.898;2023-04-07T13:22:06;101953.88;;;11.57;26.30
70323;BME280;57735;56.264;43.898;2023-04-07T13:24:38;101953.72;;;11.25;26.69
70323;BME280;57735;56.264;43.898;2023-04-07T13:27:09;101964.84;;;10.97;26.92
70323;BME280;57735;56.264;43.898;2023-04-07T13:29:42;101955.19;;;10.72;27.57
70323;BME280;57735;56.264;43.898;2023-04-07T13:32:18;101962.88;;;10.53;27.39
70323;BME280;57735;56.264;43.898;2023-04-07T13:34:48;101946.06;;;10.39;28.32
70323;BME280;57735;56.264;43.898;2023-04-07T13:37:19;101952.84;;;10.32;28.02
70323;BME280;57735;56.264;43.898;2023-04-07T13:39:50;101946.59;;;10.21;28.24